createdAt,value
2022-12-17T00:57:43.944Z,7.33
2022-12-17T01:00:42.425Z,7.35
2022-12-17T01:03:37.363Z,7.34
2022-12-17T01:06:26.201Z,7.34
2022-12-17T01:09:16.433Z,7.51
2022-12-17T01:12:10.172Z,7.42
2022-12-17T01:15:01.344Z,7.42
2022-12-17T01:17:48.858Z,7.48
2022-12-17T01:20:40.710Z,7.58
2022-12-17T01:23:30.100Z,7.57
2022-12-17T01:26:18.431Z,7.65
2022-12-17T01:29:07.698Z,7.70
2022-12-17T01:31:57.213Z,7.60
2022-12-17T01:34:46.348Z,7.71
2022-12-17T01:37:35.294Z,7.71
2022-12-17T01:40:25.940Z,7.80
2022-12-17T01:43:19.349Z,7.80
2022-12-17T01:46:13.307Z,7.75
2022-12-17T01:49:07.423Z,7.68
2022-12-17T01:51:57.378Z,7.69
2022-12-17T01:54:45.054Z,7.83
2022-12-17T01:57:34.111Z,7.65
2022-12-17T02:00:38.073Z,7.93
2022-12-17T02:03:37.497Z,7.88
2022-12-17T02:10:07.384Z,8.07
2022-12-17T02:13:10.119Z,8.08
2022-12-17T02:16:12.624Z,8.10
2022-12-17T02:19:20.073Z,8.05
2022-12-17T02:22:15.217Z,8.21
2022-12-17T02:25:18.570Z,8.25
2022-12-17T02:28:09.533Z,8.19
2022-12-17T02:31:00.641Z,8.29
2022-12-17T02:33:52.942Z,8.19
2022-12-17T02:36:41.869Z,8.31
2022-12-17T02:39:30.141Z,8.39
2022-12-17T02:42:19.561Z,8.43
2022-12-17T02:45:09.371Z,8.43
2022-12-17T02:48:00.449Z,8.46
2022-12-17T02:54:01.069Z,8.48
2022-12-17T02:56:53.099Z,8.51
2022-12-17T03:00:06.381Z,8.56
2022-12-17T03:02:54.286Z,8.58
2022-12-17T03:05:46.789Z,8.59
2022-12-17T03:08:35.080Z,8.63
2022-12-17T03:15:02.200Z,8.45
2022-12-17T03:17:56.823Z,8.43
2022-12-17T03:20:45.210Z,8.49
2022-12-17T03:23:34.414Z,8.58
2022-12-17T03:26:23.067Z,8.52
2022-12-17T03:29:11.133Z,8.61
2022-12-17T03:32:00.396Z,8.72
2022-12-17T03:34:49.066Z,8.72
2022-12-17T03:37:56.134Z,8.70
2022-12-17T03:40:43.472Z,8.68
2022-12-17T03:43:31.624Z,8.72
2022-12-17T03:46:18.151Z,8.76
2022-12-17T03:49:06.766Z,8.70
2022-12-17T03:51:55.086Z,8.84
2022-12-17T03:54:43.802Z,8.64
2022-12-17T03:57:32.057Z,8.63
2022-12-17T04:00:19.915Z,8.77
2022-12-17T04:03:07.177Z,8.87
2022-12-17T04:05:56.079Z,8.91
2022-12-17T04:08:45.528Z,8.79
2022-12-17T04:11:33.057Z,8.95
2022-12-17T04:14:21.228Z,8.77
2022-12-17T04:17:09.752Z,8.82
2022-12-17T04:19:57.158Z,8.74
2022-12-17T04:22:45.729Z,8.83
2022-12-17T04:25:34.021Z,8.98
2022-12-17T04:28:22.229Z,9.06
2022-12-17T04:31:10.156Z,8.98
2022-12-17T04:33:59.462Z,8.91
2022-12-17T04:36:48.124Z,9.00
2022-12-17T04:39:36.698Z,9.01
2022-12-17T04:42:35.045Z,9.15
2022-12-17T04:45:29.833Z,9.07
2022-12-17T04:48:22.059Z,9.18
2022-12-17T04:51:11.440Z,9.24
2022-12-17T04:53:59.079Z,9.17
2022-12-17T04:56:46.942Z,9.35
2022-12-17T04:59:34.086Z,9.37
2022-12-17T05:02:22.114Z,9.43
2022-12-17T05:05:09.129Z,9.47
2022-12-17T05:07:59.092Z,9.39
2022-12-17T05:10:46.030Z,9.48
2022-12-17T05:13:44.229Z,9.28
2022-12-17T05:16:34.152Z,9.34
2022-12-17T05:19:21.922Z,9.32
2022-12-17T05:22:10.128Z,9.33
2022-12-17T05:24:58.388Z,9.39
2022-12-17T05:27:54.001Z,9.45
2022-12-17T05:30:44.009Z,9.53
2022-12-17T05:33:33.170Z,9.56
2022-12-17T05:40:42.581Z,8.82
2022-12-17T05:43:45.071Z,8.90
2022-12-17T05:46:33.418Z,9.04
2022-12-17T05:49:22.247Z,9.06
2022-12-17T05:52:16.092Z,8.90
2022-12-17T05:55:06.893Z,8.86
2022-12-17T05:57:56.712Z,9.02
2022-12-17T06:00:44.315Z,8.89
2022-12-17T06:03:32.090Z,9.07
2022-12-17T06:15:30.733Z,8.68
2022-12-17T06:18:17.594Z,8.99
2022-12-17T06:21:07.446Z,8.94
2022-12-17T06:23:57.972Z,8.98
2022-12-17T06:26:47.012Z,9.15
2022-12-17T06:29:39.360Z,9.21
2022-12-17T06:32:29.079Z,9.30
2022-12-17T06:35:22.307Z,9.37
2022-12-17T06:38:19.357Z,9.32
2022-12-17T06:41:08.349Z,9.41
2022-12-17T06:50:29.243Z,9.47
2022-12-17T06:53:25.495Z,9.52
2022-12-17T06:56:16.300Z,9.52
2022-12-17T06:59:06.402Z,9.68
2022-12-17T07:02:02.865Z,9.70
2022-12-17T07:04:56.962Z,9.83
2022-12-17T07:07:48.935Z,9.78
2022-12-17T07:10:43.233Z,9.77
2022-12-17T07:13:37.879Z,9.64
2022-12-17T07:16:27.825Z,9.60
2022-12-17T07:19:20.445Z,9.76
2022-12-17T07:25:27.994Z,9.77
2022-12-17T07:28:18.720Z,10.03
2022-12-17T07:58:27.528Z,9.91
2022-12-17T08:01:22.600Z,10.03
2022-12-17T08:04:16.486Z,10.19
2022-12-17T08:07:10.135Z,10.31
2022-12-17T08:10:05.252Z,10.32
2022-12-17T08:12:54.041Z,10.54
2022-12-17T08:16:23.384Z,10.53
2022-12-17T08:19:21.653Z,10.71
2022-12-17T08:22:22.558Z,10.76
2022-12-17T08:25:15.323Z,10.79
2022-12-17T08:28:49.427Z,10.89
2022-12-17T08:31:28.521Z,10.82
2022-12-17T08:34:22.715Z,10.91
2022-12-17T08:37:29.363Z,10.96
2022-12-17T08:40:22.113Z,11.01
2022-12-17T08:43:19.468Z,11.11
2022-12-17T08:46:15.523Z,10.94
2022-12-17T08:49:07.445Z,11.04
2022-12-17T08:51:58.069Z,11.15
2022-12-17T08:54:49.268Z,11.14
2022-12-17T08:57:40.685Z,11.34
2022-12-17T09:00:33.863Z,11.24
2022-12-17T09:03:24.920Z,11.34
2022-12-17T09:06:14.770Z,11.39
2022-12-17T09:09:03.554Z,11.44
2022-12-17T09:11:57.079Z,11.39
2022-12-17T09:14:46.989Z,11.38
2022-12-17T09:17:36.090Z,11.46
2022-12-17T09:20:28.909Z,11.48
2022-12-17T09:23:32.764Z,11.57
2022-12-17T09:26:24.232Z,11.49
2022-12-17T09:29:14.245Z,11.60
2022-12-17T09:32:03.338Z,11.66
2022-12-17T09:34:53.154Z,11.64
2022-12-17T09:37:41.816Z,11.73
2022-12-17T09:44:07.321Z,11.67
2022-12-17T09:47:27.188Z,11.63
2022-12-17T09:50:16.273Z,11.61
2022-12-17T09:53:04.703Z,11.62
2022-12-17T09:56:01.771Z,11.61
2022-12-17T09:58:57.643Z,11.63
2022-12-17T10:01:54.488Z,11.68
2022-12-17T10:04:59.572Z,11.58
2022-12-17T10:07:53.999Z,11.59
2022-12-17T10:10:51.490Z,11.71
2022-12-17T10:13:49.630Z,11.69
2022-12-17T10:17:09.890Z,11.42
2022-12-17T10:20:02.256Z,11.51
2022-12-17T10:23:07.416Z,11.56
2022-12-17T10:25:57.161Z,11.33
2022-12-17T10:28:44.802Z,11.52
2022-12-17T10:31:42.589Z,11.46
2022-12-17T10:34:37.282Z,11.42
2022-12-17T10:37:27.440Z,11.35
2022-12-17T10:40:20.237Z,11.45
2022-12-17T10:43:12.361Z,11.45
2022-12-17T10:46:01.243Z,11.48
2022-12-17T10:48:51.536Z,11.47
2022-12-17T10:51:51.313Z,11.49
2022-12-17T10:54:49.656Z,11.61
2022-12-17T10:57:57.406Z,11.74
2022-12-17T11:01:34.221Z,11.60
2022-12-17T11:04:22.334Z,11.51
2022-12-17T11:07:15.542Z,11.53
2022-12-17T11:10:11.254Z,11.53
2022-12-17T11:13:22.292Z,11.62
2022-12-17T11:16:38.947Z,11.75
2022-12-17T11:19:32.775Z,11.64
2022-12-17T11:22:36.764Z,11.64
2022-12-17T11:25:57.870Z,11.75
2022-12-17T11:28:52.444Z,11.76
2022-12-17T11:32:09.696Z,11.92
2022-12-17T11:35:25.341Z,11.97
2022-12-17T11:38:51.681Z,11.87
2022-12-17T11:42:10.896Z,11.88
2022-12-17T11:45:23.250Z,11.85
2022-12-17T11:48:45.562Z,11.87
2022-12-17T11:52:04.297Z,11.89
2022-12-17T11:55:35.779Z,11.97
2022-12-17T11:58:28.367Z,11.95
2022-12-17T12:01:51.973Z,11.90
2022-12-17T12:05:16.419Z,11.89
2022-12-17T12:08:32.202Z,11.91
2022-12-17T12:11:51.576Z,11.86
2022-12-17T12:15:00.341Z,11.72
2022-12-17T12:18:19.012Z,11.70
2022-12-17T12:21:34.104Z,11.76
2022-12-17T12:25:03.695Z,11.84
2022-12-17T12:28:10.162Z,11.85
2022-12-17T12:31:20.276Z,11.91
2022-12-17T12:34:20.351Z,12.02
2022-12-17T12:37:10.312Z,11.90
2022-12-17T12:40:28.700Z,11.99
2022-12-17T12:43:41.479Z,12.05
2022-12-17T12:46:41.767Z,12.10
2022-12-17T12:49:46.262Z,12.08
2022-12-17T12:52:41.040Z,12.19
2022-12-17T12:55:30.280Z,12.15
2022-12-17T12:58:46.647Z,12.10
2022-12-17T13:01:36.475Z,12.00
2022-12-17T13:04:49.232Z,12.09
2022-12-17T13:07:33.165Z,12.08
2022-12-17T13:10:02.728Z,12.07
2022-12-17T13:12:51.234Z,11.94
2022-12-17T13:15:33.545Z,11.88
2022-12-17T13:18:41.287Z,11.94
2022-12-17T13:21:18.752Z,12.02
2022-12-17T13:23:46.989Z,11.90
2022-12-17T13:26:47.237Z,11.85
2022-12-17T13:29:33.318Z,11.88
2022-12-17T13:32:34.486Z,11.78
2022-12-17T13:35:34.566Z,11.81
2022-12-17T13:38:30.875Z,11.74
2022-12-17T13:41:18.121Z,11.77
2022-12-17T13:43:58.577Z,11.76
2022-12-17T13:46:30.206Z,11.61
2022-12-17T13:49:05.309Z,11.72
2022-12-17T13:51:37.808Z,11.84
2022-12-17T13:54:15.252Z,11.87
2022-12-17T13:56:44.934Z,11.85
2022-12-17T13:59:24.723Z,11.91
2022-12-17T14:01:57.003Z,11.83
2022-12-17T14:04:32.750Z,11.81
2022-12-17T14:07:06.309Z,11.85
2022-12-17T14:09:43.371Z,11.94
2022-12-17T14:12:25.768Z,11.92
2022-12-17T14:15:02.783Z,11.93
2022-12-17T14:17:50.346Z,11.88
2022-12-17T14:20:26.659Z,11.87
2022-12-17T14:23:11.109Z,11.89
2022-12-17T14:25:43.155Z,11.94
2022-12-17T14:28:34.423Z,11.92
2022-12-17T14:31:26.479Z,11.96
2022-12-17T14:34:11.920Z,11.94
2022-12-17T14:36:44.025Z,11.94
2022-12-17T14:39:44.418Z,11.81
2022-12-17T14:42:26.114Z,11.76
2022-12-17T14:45:08.020Z,11.75
2022-12-17T14:47:38.300Z,11.76
2022-12-17T14:50:27.402Z,11.64
2022-12-17T14:52:59.753Z,11.62
2022-12-17T14:55:56.824Z,11.66
2022-12-17T15:01:14.396Z,11.32
2022-12-17T15:03:51.523Z,11.44
2022-12-17T15:06:20.669Z,11.54
2022-12-17T15:08:53.465Z,11.46
2022-12-17T15:11:24.685Z,11.39
2022-12-17T15:13:56.888Z,11.37
2022-12-17T15:16:43.353Z,11.30
2022-12-17T15:19:13.709Z,11.39
2022-12-17T15:21:41.762Z,11.46
2022-12-17T15:24:15.263Z,11.51
2022-12-17T15:26:49.458Z,11.39
2022-12-17T15:29:21.774Z,11.39
2022-12-17T15:31:50.982Z,11.49
2022-12-17T15:34:20.530Z,11.43
2022-12-17T15:36:48.749Z,11.40
2022-12-17T15:39:18.282Z,11.38
2022-12-17T15:42:06.230Z,11.46
2022-12-17T15:44:35.433Z,11.26
2022-12-17T15:47:04.961Z,11.32
2022-12-17T15:49:33.939Z,11.44
2022-12-17T15:52:03.449Z,11.47
2022-12-17T15:54:33.049Z,11.42
2022-12-17T15:57:01.870Z,11.42
2022-12-17T15:59:33.975Z,11.22
2022-12-17T16:02:02.968Z,11.23
2022-12-17T16:04:32.785Z,11.43
2022-12-17T16:07:05.458Z,11.46
2022-12-17T16:09:34.928Z,11.40
2022-12-17T16:12:03.925Z,11.41
2022-12-17T16:14:33.402Z,11.29
2022-12-17T16:17:01.727Z,11.46
2022-12-17T16:19:30.922Z,11.41
2022-12-17T16:21:58.788Z,11.34
2022-12-17T16:24:26.659Z,11.48
2022-12-17T16:26:59.410Z,11.47
2022-12-17T16:29:32.305Z,11.45
2022-12-17T16:32:01.847Z,11.46
2022-12-17T16:34:30.684Z,11.60
2022-12-17T16:36:59.899Z,11.62
2022-12-17T19:41:08.951Z,10.14
2022-12-17T19:43:38.180Z,10.19
2022-12-17T19:46:16.746Z,10.19
2022-12-17T19:48:48.917Z,10.16
2022-12-17T19:51:21.597Z,10.26
2022-12-17T19:53:51.382Z,10.36
2022-12-17T19:56:33.887Z,10.33
2022-12-17T19:59:18.173Z,10.29
2022-12-17T20:01:56.158Z,10.39
2022-12-17T20:04:27.775Z,10.36
2022-12-17T20:06:57.803Z,10.38
2022-12-17T20:09:26.747Z,10.41
2022-12-17T20:11:56.127Z,10.45
2022-12-17T20:14:28.931Z,10.43
2022-12-17T20:17:00.159Z,10.33
2022-12-17T20:19:32.751Z,10.24
2022-12-17T20:22:04.831Z,10.16
2022-12-17T20:24:33.396Z,10.38
2022-12-17T20:27:02.186Z,10.37
2022-12-17T20:29:32.013Z,10.46
2022-12-17T20:32:04.940Z,10.45
2022-12-17T20:34:34.933Z,10.48
2022-12-17T20:37:04.013Z,10.55
2022-12-17T20:39:43.577Z,10.62
2022-12-17T20:42:13.101Z,10.74
2022-12-17T20:44:48.627Z,10.76
2022-12-17T20:47:21.207Z,10.81
2022-12-17T20:49:50.651Z,10.75
2022-12-17T20:52:20.789Z,10.86
2022-12-17T20:54:53.485Z,10.75
2022-12-17T20:57:22.814Z,10.74
2022-12-17T20:59:52.072Z,10.88
2022-12-17T21:02:20.204Z,11.02
2022-12-17T21:04:50.200Z,11.03
2022-12-17T21:07:21.971Z,11.12
2022-12-17T21:09:51.713Z,11.09
2022-12-17T21:12:21.210Z,11.12
2022-12-17T21:14:50.047Z,11.15
2022-12-17T21:17:23.313Z,11.24
2022-12-17T21:19:53.081Z,11.30
2022-12-17T21:22:21.997Z,11.27
2022-12-17T21:24:50.041Z,11.33
2022-12-17T21:27:18.947Z,11.29
2022-12-17T21:32:34.043Z,11.39
2022-12-17T21:35:06.216Z,11.46
2022-12-17T21:37:35.106Z,11.59
2022-12-17T21:40:04.262Z,11.43
2022-12-17T21:42:52.593Z,11.40
2022-12-17T21:45:21.949Z,11.50
2022-12-17T21:47:52.517Z,11.56
2022-12-17T21:50:23.964Z,11.70
2022-12-17T21:52:53.255Z,11.74
2022-12-17T21:55:24.168Z,11.74
2022-12-17T21:57:53.795Z,11.78
2022-12-17T22:00:23.003Z,11.90
2022-12-17T22:02:52.304Z,12.03
2022-12-17T22:05:21.457Z,12.16
2022-12-17T22:07:51.921Z,12.12
2022-12-17T22:10:37.775Z,12.05
2022-12-17T22:13:34.614Z,12.11
2022-12-17T22:16:07.401Z,12.09
2022-12-17T22:18:40.932Z,12.08
2022-12-17T22:21:14.527Z,12.08
2022-12-17T22:23:49.057Z,11.91
2022-12-17T22:26:19.703Z,11.81
2022-12-17T22:28:51.426Z,11.88
2022-12-17T22:31:41.168Z,11.86
2022-12-17T22:34:50.685Z,11.85
2022-12-17T22:38:58.337Z,11.92
2022-12-17T22:42:36.055Z,12.01
2022-12-17T22:44:41.154Z,12.00
2022-12-17T22:46:03.131Z,12.04
2022-12-17T22:48:36.528Z,12.04
2022-12-17T22:51:14.050Z,11.89
2022-12-17T22:53:46.996Z,12.01
2022-12-17T22:56:29.467Z,11.99
2022-12-17T22:59:22.488Z,11.98
2022-12-17T23:01:51.635Z,11.98
2022-12-17T23:04:20.143Z,11.98
2022-12-17T23:06:49.608Z,11.96
2022-12-17T23:09:22.343Z,11.97
2022-12-17T23:11:55.128Z,12.15
2022-12-17T23:14:23.536Z,12.04
2022-12-17T23:16:56.567Z,12.24
2022-12-17T23:19:28.144Z,12.17
2022-12-17T23:22:00.910Z,12.23
2022-12-17T23:24:39.042Z,12.28
2022-12-17T23:27:08.066Z,12.09
2022-12-17T23:29:38.027Z,12.07
2022-12-17T23:32:07.363Z,12.25
2022-12-17T23:34:36.050Z,12.20
2022-12-17T23:37:05.481Z,12.26
2022-12-17T23:39:34.103Z,12.34
2022-12-17T23:42:04.144Z,12.20
2022-12-17T23:44:33.443Z,12.21
2022-12-17T23:47:02.557Z,12.30
2022-12-17T23:49:32.074Z,12.45
2022-12-17T23:52:00.206Z,12.38
2022-12-17T23:54:30.876Z,12.23
2022-12-17T23:57:01.171Z,12.23
2022-12-17T23:59:31.052Z,12.29
